Current | Forecast
Updated: 4:49 AM JST on February 22, 2018
Observed at Shimofusa AB, Japan
Temperature 34°F
Windchill 29°F
Humidity 93%
Dew Point 32°F
Wind NNE at 6 mph
Pressure 30.09 in (Rising)
Conditions Light Snow
Visibility -
UV 0 out of 16
Clouds Mostly Cloudy (BKN) : 800 ft
Mostly Cloudy (BKN) : 2500 ft
Mostly Cloudy (BKN) : 4000 ft
Yesterday's Maximum 41°F
Yesterday's Minimum 39°F approx.
Yesterday's Heating Degree Days 25 approx.
Sunrise6:20 AM JST
Sunset5:28 PM JST
Moon Rise10:02 AM JST
Moon Set11:45 PM JST
Moon PhaseMoon Phase
Waxing Crescent
Raw METARSPECI RJTL 211949Z 03005KT 3100 -SN BR BKN008 BKN025 BKN040 01/M00 Q1019 RMK 5ST008 6SC025 7SC040 A3011


Monday
. High: 77° F.
Tuesday
. High: 77° F.
Wednesday
. High: 66° F.
Thursday
. High: 73° F.
Friday
. High: 75° F.
Saturday
. High: 73° F.
Sunday
. High: 73° F.
Monday
. High: 71° F.

Units: English | Metric

Find the Weather for any City, State or Zipcode, or Country:

U.S. State List | Severe Weather | Tropical Storms | Ski Conditions
United States | Canada | Central America | South America | Asia | Europe | Australia | Africa | Islands

Weather Underground

© Copyright 2018
The Weather Company, LLC